Gaz Venture — 3FLQ4 — position and weather

sailwx.info

Track history (hours):
 
Tides and Currents Weather Stations Pressure Air Temp Water Temp Dewpoint Dewpoint Depression Visibility Wind Speed Wind Dir Waves Ship Positions

Gaz Venture

Last reported at 2017-Jun-16 08:20 UTC. Time now 2017-Jun-27 22:32 UTC.
Position N 34°36' E 024°42'.
Warning: this ship's position is 11 days out of date.

Length 120 m; draft 7.9 m.

Type: Ship (hazmat cat D). MMSI: 356141000.

Date/timePositionNaut miles runAvg speedWind from/ knotsBaromVisibWave heightAir tempDewpointWater temp
2017-Jun-16 08:20N 34°36' E 024°42'6 0.9
2017-Jun-16 01:04N 34°30' E 024°38'0 1.0
2017-Jun-16 00:42N 34°31' E 024°38'0 0.9
2017-Jun-16 00:30N 34°31' E 024°38'1 1.0
2017-Jun-15 23:59N 34°31' E 024°38'0 1.0
2017-Jun-15 23:30N 34°32' E 024°37'2 1.0
2017-Jun-15 21:13N 34°34' E 024°36'0 1.0
2017-Jun-15 20:46N 34°34' E 024°36'1 1.1
2017-Jun-15 19:48N 34°35' E 024°35'5110.0
2017-Jun-15 14:39N 34°31' E 023°33'914.3
2017-Jun-15 14:00N 34°31' E 023°22'714.2
2017-Jun-15 13:30N 34°30' E 023°13'2114.0
2017-Jun-15 12:00N 34°26' E 022°48'714.5
2017-Jun-15 11:30N 34°25' E 022°39'714.7
2017-Jun-15 11:00N 34°24' E 022°30'714.7
2017-Jun-15 10:30N 34°23' E 022°21'3814.3
2017-Jun-15 07:50N 34°16' E 021°36'1514.1
2017-Jun-15 06:47N 34°14' E 021°18'714.2
2017-Jun-15 06:17N 34°13' E 021°10'2714.2
2017-Jun-15 04:25N 34°08' E 020°38'614.2
2017-Jun-15 04:00N 34°07' E 020°31'6914.0
2017-Jun-14 23:06N 33°57' E 019°10'214.5
2017-Jun-14 22:59N 33°57' E 019°08'3714.2
2017-Jun-14 20:23N 33°49' E 018°24'28114.3
2017-Jun-14 00:41N 33°07' E 012°51'1413.8
2017-Jun-13 23:40N 33°05' E 012°34'214.1
2017-Jun-13 23:30N 33°04' E 012°32'1513.9
2017-Jun-13 22:27N 32°56' E 012°17'179 5.5
2017-Jun-12 14:10N 35°19' E 014°26'1014.3
2017-Jun-12 13:30N 35°27' E 014°33'1714.8
2017-Jun-12 12:19N 35°41' E 014°46'714.6
2017-Jun-12 11:52N 35°46' E 014°51'410.6
2017-Jun-12 11:31N 35°49' E 014°54'0 0.2
2017-Jun-12 10:20N 35°49' E 014°54'0 0.0
2017-Jun-12 09:56N 35°49' E 014°54'0 0.0
2017-Jun-12 09:14N 35°49' E 014°54'0 0.0
2017-Jun-12 08:44N 35°49' E 014°54'0 0.0
2017-Jun-12 08:20N 35°49' E 014°54'0 0.0
2017-Jun-12 07:56N 35°49' E 014°54'0 0.0
2017-Jun-12 07:02N 35°49' E 014°54'0 0.0
2017-Jun-12 06:53N 35°49' E 014°54'0 0.0
2017-Jun-12 06:20N 35°49' E 014°54'0 0.0
2017-Jun-12 05:44N 35°49' E 014°54'0 0.0
2017-Jun-12 05:14N 35°49' E 014°54'0 0.0
2017-Jun-12 04:56N 35°49' E 014°54'0 0.0
2017-Jun-12 03:53N 35°49' E 014°54'0 0.0
2017-Jun-11 22:44N 35°49' E 014°54'0 0.0
2017-Jun-11 22:20N 35°49' E 014°54'0 0.0
2017-Jun-11 21:56N 35°49' E 014°54'0 0.0
2017-Jun-11 21:29N 35°49' E 014°54'0 0.0
2017-Jun-11 20:56N 35°49' E 014°54'0 0.0
2017-Jun-11 20:29N 35°49' E 014°54'0 0.0
2017-Jun-11 19:59N 35°49' E 014°54'0 0.0
2017-Jun-11 19:29N 35°49' E 014°54'0 0.0
2017-Jun-11 18:56N 35°49' E 014°54'0 0.0
2017-Jun-11 18:29N 35°49' E 014°54'0 0.0
2017-Jun-11 17:53N 35°49' E 014°54'0 0.0
2017-Jun-11 17:20N 35°49' E 014°54'0 0.0
2017-Jun-11 16:53N 35°49' E 014°54'0 0.0
2017-Jun-11 16:26N 35°49' E 014°54'0 0.0
2017-Jun-11 15:59N 35°49' E 014°54'0 0.0
2017-Jun-11 15:26N 35°49' E 014°54'0 0.0
2017-Jun-11 14:59N 35°49' E 014°54'0 0.0
2017-Jun-11 13:59N 35°49' E 014°54'0 0.0
2017-Jun-11 13:29N 35°49' E 014°54'0 0.0
2017-Jun-11 12:59N 35°49' E 014°54'0 0.0
2017-Jun-11 12:29N 35°49' E 014°54'0 0.0
2017-Jun-11 11:59N 35°49' E 014°54'0 0.0
2017-Jun-11 11:29N 35°49' E 014°54'0 0.0
2017-Jun-11 10:59N 35°49' E 014°54'0 0.0
2017-Jun-11 10:29N 35°49' E 014°54'0 0.0
2017-Jun-11 09:59N 35°49' E 014°54'0 0.0
2017-Jun-11 09:29N 35°49' E 014°54'0 0.1
2017-Jun-11 08:59N 35°49' E 014°54'0 0.0
2017-Jun-11 08:29N 35°49' E 014°54'0 0.0
2017-Jun-11 07:59N 35°49' E 014°54'0 0.0
2017-Jun-11 07:23N 35°49' E 014°54'0 0.0
2017-Jun-11 06:59N 35°49' E 014°54'0 0.1
2017-Jun-11 06:29N 35°49' E 014°54'3 6.2
2017-Jun-11 06:01N 35°51' E 014°56'813.9
2017-Jun-11 05:25N 35°58' E 015°02'2015.2
2017-Jun-11 04:05N 36°16' E 015°15'215.2
2017-Jun-11 03:59N 36°17' E 015°16'715.0
2017-Jun-11 03:30N 36°23' E 015°20'814.9
2017-Jun-11 02:57N 36°30' E 015°25'714.8
2017-Jun-11 02:28N 36°36' E 015°30'814.4
2017-Jun-11 01:56N 36°44' E 015°33'714.9
2017-Jun-11 01:30N 36°50' E 015°33'715.0
2017-Jun-11 01:00N 36°58' E 015°33'815.0
2017-Jun-11 00:30N 37°05' E 015°32'714.9
2017-Jun-11 00:00N 37°13' E 015°32'1815.1
2017-Jun-10 22:49N 37°30' E 015°33'515.7
2017-Jun-10 22:30N 37°35' E 015°34'816.0
2017-Jun-10 22:00N 37°43' E 015°34'815.7
2017-Jun-10 21:30N 37°51' E 015°33'815.4
2017-Jun-10 21:00N 37°59' E 015°33'815.6
2017-Jun-10 20:30N 38°06' E 015°35'713.8
2017-Jun-10 20:00N 38°13' E 015°36'713.2
2017-Jun-10 19:30N 38°19' E 015°40'815.2
2017-Jun-10 19:00N 38°26' E 015°36'815.3
2017-Jun-10 18:30N 38°33' E 015°33'815.4
2017-Jun-10 18:00N 38°40' E 015°29'815.1
2017-Jun-10 17:30N 38°47' E 015°25'715.0
2017-Jun-10 17:00N 38°54' E 015°21'815.4
2017-Jun-10 16:30N 39°00' E 015°16'815.5
2017-Jun-10 16:00N 39°07' E 015°10'3615.5
2017-Jun-10 13:40N 39°38' E 014°48'415.4
2017-Jun-10 13:23N 39°42' E 014°45'1815.4
2017-Jun-10 12:12N 39°58' E 014°33'315.3
2017-Jun-10 12:00N 40°01' E 014°31'915.4
2017-Jun-10 11:26N 40°08' E 014°25'815.1
2017-Jun-10 10:54N 40°15' E 014°20'715.4
2017-Jun-10 10:27N 40°21' E 014°15'815.5
2017-Jun-10 09:56N 40°28' E 014°10'614.4
2017-Jun-10 09:30N 40°34' E 014°08'815.2
2017-Jun-10 09:00N 40°41' E 014°13'714.9
2017-Jun-10 08:30N 40°48' E 014°18'3 3.1
2017-Jun-10 07:39N 40°50' E 014°18'0 0.0
2017-Jun-10 07:30N 40°50' E 014°18'0 0.0
2017-Jun-10 06:57N 40°50' E 014°18'0 0.0
2017-Jun-10 06:03N 40°50' E 014°18'0 0.0
2017-Jun-10 06:00N 40°50' E 014°18'0 0.0
2017-Jun-10 05:30N 40°50' E 014°18'0 0.0
2017-Jun-10 04:54N 40°50' E 014°18'0 0.0
2017-Jun-10 04:27N 40°50' E 014°18'0 0.0
2017-Jun-10 04:00N 40°50' E 014°18'0 0.0
2017-Jun-10 03:30N 40°50' E 014°18'0 0.0
2017-Jun-10 03:00N 40°50' E 014°18'0 0.0
2017-Jun-10 02:30N 40°50' E 014°18'0 0.0
2017-Jun-10 02:00N 40°50' E 014°18'0 0.0
2017-Jun-10 01:24N 40°50' E 014°18'0 0.0
2017-Jun-10 00:57N 40°50' E 014°18'0 0.0
2017-Jun-10 00:18N 40°50' E 014°18'18 0.9
2017-Jun-09 04:23N 40°34' E 014°08'713.1
2017-Jun-09 03:52N 40°27' E 014°11'514.4
2017-Jun-09 03:30N 40°23' E 014°14'914.7
2017-Jun-09 02:54N 40°15' E 014°20'614.6
2017-Jun-09 02:28N 40°10' E 014°24'914.5
2017-Jun-09 01:52N 40°02' E 014°30'614.4
2017-Jun-09 01:26N 39°57' E 014°34'8014.2
2017-Jun-08 19:47N 38°47' E 015°25'814.3
2017-Jun-08 19:14N 38°40' E 015°29'614.0
2017-Jun-08 18:49N 38°34' E 015°32'513.6
2017-Jun-08 18:27N 38°30' E 015°35'613.6
2017-Jun-08 18:00N 38°25' E 015°38'713.4
2017-Jun-08 17:31N 38°19' E 015°42'612.1
2017-Jun-08 17:00N 38°14' E 015°37'713.6
2017-Jun-08 16:30N 38°07' E 015°36'613.2
2017-Jun-08 16:00N 38°01' E 015°36'714.0
2017-Jun-08 15:30N 37°54' E 015°40'814.7
2017-Jun-08 14:59N 37°49' E 015°47'714.9
2017-Jun-08 14:30N 37°46' E 015°55'1914.6
2017-Jun-08 13:12N 37°36' E 016°16'74014.9
2017-Jun-06 11:39N 31°25' E 029°13'214.6
2017-Jun-06 11:30N 31°24' E 029°16'714.5
2017-Jun-06 11:01N 31°20' E 029°23'714.7
2017-Jun-06 10:30N 31°17' E 029°31'  
Track history (hours):
 
Tides and Currents Weather Stations Pressure Air Temp Water Temp Dewpoint Dewpoint Depression Visibility Wind Speed Wind Dir Waves Ship Positions

Gaz Venture

Last reported at 2017-Jun-16 08:20 UTC. Time now 2017-Jun-27 22:32 UTC.
Position N 34°36' E 024°42'.
Warning: this ship's position is 11 days out of date.

Length 120 m; draft 7.9 m.

Type: Ship (hazmat cat D). MMSI: 356141000.

Date/timePositionNaut miles runAvg speedWind from/ knotsBaromVisibWave heightAir tempDewpointWater temp
2017-Jun-16 08:20N 34°36' E 024°42'6 0.9
2017-Jun-16 01:04N 34°30' E 024°38'0 1.0
2017-Jun-16 00:42N 34°31' E 024°38'0 0.9
2017-Jun-16 00:30N 34°31' E 024°38'1 1.0
2017-Jun-15 23:59N 34°31' E 024°38'0 1.0
2017-Jun-15 23:30N 34°32' E 024°37'2 1.0
2017-Jun-15 21:13N 34°34' E 024°36'0 1.0
2017-Jun-15 20:46N 34°34' E 024°36'1 1.1
2017-Jun-15 19:48N 34°35' E 024°35'5110.0
2017-Jun-15 14:39N 34°31' E 023°33'914.3
2017-Jun-15 14:00N 34°31' E 023°22'714.2
2017-Jun-15 13:30N 34°30' E 023°13'2114.0
2017-Jun-15 12:00N 34°26' E 022°48'714.5
2017-Jun-15 11:30N 34°25' E 022°39'714.7
2017-Jun-15 11:00N 34°24' E 022°30'714.7
2017-Jun-15 10:30N 34°23' E 022°21'3814.3
2017-Jun-15 07:50N 34°16' E 021°36'1514.1
2017-Jun-15 06:47N 34°14' E 021°18'714.2
2017-Jun-15 06:17N 34°13' E 021°10'2714.2
2017-Jun-15 04:25N 34°08' E 020°38'614.2
2017-Jun-15 04:00N 34°07' E 020°31'6914.0
2017-Jun-14 23:06N 33°57' E 019°10'214.5
2017-Jun-14 22:59N 33°57' E 019°08'3714.2
2017-Jun-14 20:23N 33°49' E 018°24'28114.3
2017-Jun-14 00:41N 33°07' E 012°51'1413.8
2017-Jun-13 23:40N 33°05' E 012°34'214.1
2017-Jun-13 23:30N 33°04' E 012°32'1513.9
2017-Jun-13 22:27N 32°56' E 012°17'179 5.5
2017-Jun-12 14:10N 35°19' E 014°26'1014.3
2017-Jun-12 13:30N 35°27' E 014°33'1714.8
2017-Jun-12 12:19N 35°41' E 014°46'714.6
2017-Jun-12 11:52N 35°46' E 014°51'410.6
2017-Jun-12 11:31N 35°49' E 014°54'0 0.2
2017-Jun-12 10:20N 35°49' E 014°54'0 0.0
2017-Jun-12 09:56N 35°49' E 014°54'0 0.0
2017-Jun-12 09:14N 35°49' E 014°54'0 0.0
2017-Jun-12 08:44N 35°49' E 014°54'0 0.0
2017-Jun-12 08:20N 35°49' E 014°54'0 0.0
2017-Jun-12 07:56N 35°49' E 014°54'0 0.0
2017-Jun-12 07:02N 35°49' E 014°54'0 0.0
2017-Jun-12 06:53N 35°49' E 014°54'0 0.0
2017-Jun-12 06:20N 35°49' E 014°54'0 0.0
2017-Jun-12 05:44N 35°49' E 014°54'0 0.0
2017-Jun-12 05:14N 35°49' E 014°54'0 0.0
2017-Jun-12 04:56N 35°49' E 014°54'0 0.0
2017-Jun-12 03:53N 35°49' E 014°54'0 0.0
2017-Jun-11 22:44N 35°49' E 014°54'0 0.0
2017-Jun-11 22:20N 35°49' E 014°54'0 0.0
2017-Jun-11 21:56N 35°49' E 014°54'0 0.0
2017-Jun-11 21:29N 35°49' E 014°54'0 0.0
2017-Jun-11 20:56N 35°49' E 014°54'0 0.0
2017-Jun-11 20:29N 35°49' E 014°54'0 0.0
2017-Jun-11 19:59N 35°49' E 014°54'0 0.0
2017-Jun-11 19:29N 35°49' E 014°54'0 0.0
2017-Jun-11 18:56N 35°49' E 014°54'0 0.0
2017-Jun-11 18:29N 35°49' E 014°54'0 0.0
2017-Jun-11 17:53N 35°49' E 014°54'0 0.0
2017-Jun-11 17:20N 35°49' E 014°54'0 0.0
2017-Jun-11 16:53N 35°49' E 014°54'0 0.0
2017-Jun-11 16:26N 35°49' E 014°54'0 0.0
2017-Jun-11 15:59N 35°49' E 014°54'0 0.0
2017-Jun-11 15:26N 35°49' E 014°54'0 0.0
2017-Jun-11 14:59N 35°49' E 014°54'0 0.0
2017-Jun-11 13:59N 35°49' E 014°54'0 0.0
2017-Jun-11 13:29N 35°49' E 014°54'0 0.0
2017-Jun-11 12:59N 35°49' E 014°54'0 0.0
2017-Jun-11 12:29N 35°49' E 014°54'0 0.0
2017-Jun-11 11:59N 35°49' E 014°54'0 0.0
2017-Jun-11 11:29N 35°49' E 014°54'0 0.0
2017-Jun-11 10:59N 35°49' E 014°54'0 0.0
2017-Jun-11 10:29N 35°49' E 014°54'0 0.0
2017-Jun-11 09:59N 35°49' E 014°54'0 0.0
2017-Jun-11 09:29N 35°49' E 014°54'0 0.1
2017-Jun-11 08:59N 35°49' E 014°54'0 0.0
2017-Jun-11 08:29N 35°49' E 014°54'0 0.0
2017-Jun-11 07:59N 35°49' E 014°54'0 0.0
2017-Jun-11 07:23N 35°49' E 014°54'0 0.0
2017-Jun-11 06:59N 35°49' E 014°54'0 0.1
2017-Jun-11 06:29N 35°49' E 014°54'3 6.2
2017-Jun-11 06:01N 35°51' E 014°56'813.9
2017-Jun-11 05:25N 35°58' E 015°02'2015.2
2017-Jun-11 04:05N 36°16' E 015°15'215.2
2017-Jun-11 03:59N 36°17' E 015°16'715.0
2017-Jun-11 03:30N 36°23' E 015°20'814.9
2017-Jun-11 02:57N 36°30' E 015°25'714.8
2017-Jun-11 02:28N 36°36' E 015°30'814.4
2017-Jun-11 01:56N 36°44' E 015°33'714.9
2017-Jun-11 01:30N 36°50' E 015°33'715.0
2017-Jun-11 01:00N 36°58' E 015°33'815.0
2017-Jun-11 00:30N 37°05' E 015°32'714.9
2017-Jun-11 00:00N 37°13' E 015°32'1815.1
2017-Jun-10 22:49N 37°30' E 015°33'515.7
2017-Jun-10 22:30N 37°35' E 015°34'816.0
2017-Jun-10 22:00N 37°43' E 015°34'815.7
2017-Jun-10 21:30N 37°51' E 015°33'815.4
2017-Jun-10 21:00N 37°59' E 015°33'815.6
2017-Jun-10 20:30N 38°06' E 015°35'713.8
2017-Jun-10 20:00N 38°13' E 015°36'713.2
2017-Jun-10 19:30N 38°19' E 015°40'815.2
2017-Jun-10 19:00N 38°26' E 015°36'815.3
2017-Jun-10 18:30N 38°33' E 015°33'815.4
2017-Jun-10 18:00N 38°40' E 015°29'815.1
2017-Jun-10 17:30N 38°47' E 015°25'715.0
2017-Jun-10 17:00N 38°54' E 015°21'815.4
2017-Jun-10 16:30N 39°00' E 015°16'815.5
2017-Jun-10 16:00N 39°07' E 015°10'3615.5
2017-Jun-10 13:40N 39°38' E 014°48'415.4
2017-Jun-10 13:23N 39°42' E 014°45'1815.4
2017-Jun-10 12:12N 39°58' E 014°33'315.3
2017-Jun-10 12:00N 40°01' E 014°31'915.4
2017-Jun-10 11:26N 40°08' E 014°25'815.1
2017-Jun-10 10:54N 40°15' E 014°20'715.4
2017-Jun-10 10:27N 40°21' E 014°15'815.5
2017-Jun-10 09:56N 40°28' E 014°10'614.4
2017-Jun-10 09:30N 40°34' E 014°08'815.2
2017-Jun-10 09:00N 40°41' E 014°13'714.9
2017-Jun-10 08:30N 40°48' E 014°18'3 3.1
2017-Jun-10 07:39N 40°50' E 014°18'0 0.0
2017-Jun-10 07:30N 40°50' E 014°18'0 0.0
2017-Jun-10 06:57N 40°50' E 014°18'0 0.0
2017-Jun-10 06:03N 40°50' E 014°18'0 0.0
2017-Jun-10 06:00N 40°50' E 014°18'0 0.0
2017-Jun-10 05:30N 40°50' E 014°18'0 0.0
2017-Jun-10 04:54N 40°50' E 014°18'0 0.0
2017-Jun-10 04:27N 40°50' E 014°18'0 0.0
2017-Jun-10 04:00N 40°50' E 014°18'0 0.0
2017-Jun-10 03:30N 40°50' E 014°18'0 0.0
2017-Jun-10 03:00N 40°50' E 014°18'0 0.0
2017-Jun-10 02:30N 40°50' E 014°18'0 0.0
2017-Jun-10 02:00N 40°50' E 014°18'0 0.0
2017-Jun-10 01:24N 40°50' E 014°18'0 0.0
2017-Jun-10 00:57N 40°50' E 014°18'0 0.0
2017-Jun-10 00:18N 40°50' E 014°18'18 0.9
2017-Jun-09 04:23N 40°34' E 014°08'713.1
2017-Jun-09 03:52N 40°27' E 014°11'514.4
2017-Jun-09 03:30N 40°23' E 014°14'914.7
2017-Jun-09 02:54N 40°15' E 014°20'614.6
2017-Jun-09 02:28N 40°10' E 014°24'914.5
2017-Jun-09 01:52N 40°02' E 014°30'614.4
2017-Jun-09 01:26N 39°57' E 014°34'8014.2
2017-Jun-08 19:47N 38°47' E 015°25'814.3
2017-Jun-08 19:14N 38°40' E 015°29'614.0
2017-Jun-08 18:49N 38°34' E 015°32'513.6
2017-Jun-08 18:27N 38°30' E 015°35'613.6
2017-Jun-08 18:00N 38°25' E 015°38'713.4
2017-Jun-08 17:31N 38°19' E 015°42'612.1
2017-Jun-08 17:00N 38°14' E 015°37'713.6
2017-Jun-08 16:30N 38°07' E 015°36'613.2
2017-Jun-08 16:00N 38°01' E 015°36'714.0
2017-Jun-08 15:30N 37°54' E 015°40'814.7
2017-Jun-08 14:59N 37°49' E 015°47'714.9
2017-Jun-08 14:30N 37°46' E 015°55'1914.6
2017-Jun-08 13:12N 37°36' E 016°16'74014.9
2017-Jun-06 11:39N 31°25' E 029°13'214.6
2017-Jun-06 11:30N 31°24' E 029°16'714.5
2017-Jun-06 11:01N 31°20' E 029°23'714.7
2017-Jun-06 10:30N 31°17' E 029°31'  

Dump ship's entire track history